sensor_id;sensor_type;location;lat;lon;timestamp;temperature;humidity
19164;DHT22;9714;51.208;4.242;2023-03-01T00:01:23;3.40;99.90
19164;DHT22;9714;51.208;4.242;2023-03-01T00:03:51;3.50;99.90
19164;DHT22;9714;51.208;4.242;2023-03-01T00:06:20;3.50;99.90
19164;DHT22;9714;51.208;4.242;2023-03-01T00:08:49;4.00;99.90
19164;DHT22;9714;51.208;4.242;2023-03-01T00:11:19;4.20;99.90
19164;DHT22;9714;51.208;4.242;2023-03-01T00:13:51;3.70;99.90
19164;DHT22;9714;51.208;4.242;2023-03-01T00:16:22;3.50;99.90
19164;DHT22;9714;51.208;4.242;2023-03-01T00:18:56;3.30;99.90
19164;DHT22;9714;51.208;4.242;2023-03-01T00:21:26;3.30;99.90
19164;DHT22;9714;51.208;4.242;2023-03-01T00:23:55;3.20;99.90
19164;DHT22;9714;51.208;4.242;2023-03-01T00:26:24;3.10;99.90
19164;DHT22;9714;51.208;4.242;2023-03-01T00:28:58;3.20;99.90
19164;DHT22;9714;51.208;4.242;2023-03-01T00:31:45;3.20;99.90
19164;DHT22;9714;51.208;4.242;2023-03-01T00:34:12;3.20;99.90
19164;DHT22;9714;51.208;4.242;2023-03-01T00:36:43;3.10;99.90
19164;DHT22;9714;51.208;4.242;2023-03-01T00:39:20;3.10;99.90
19164;DHT22;9714;51.208;4.242;2023-03-01T00:41:52;3.00;99.90
19164;DHT22;9714;51.208;4.242;2023-03-01T00:44:32;2.90;99.90
19164;DHT22;9714;51.208;4.242;2023-03-01T00:46:59;2.90;99.90
19164;DHT22;9714;51.208;4.242;2023-03-01T00:49:30;3.00;99.90
19164;DHT22;9714;51.208;4.242;2023-03-01T00:52:00;3.10;99.90
19164;DHT22;9714;51.208;4.242;2023-03-01T00:54:36;3.20;99.90
19164;DHT22;9714;51.208;4.242;2023-03-01T00:57:11;3.10;99.90
19164;DHT22;9714;51.208;4.242;2023-03-01T01:02:48;3.10;99.90
19164;DHT22;9714;51.208;4.242;2023-03-01T01:05:26;3.10;99.90
19164;DHT22;9714;51.208;4.242;2023-03-01T01:07:53;3.20;99.90
19164;DHT22;9714;51.208;4.242;2023-03-01T01:10:24;3.10;99.90
19164;DHT22;9714;51.208;4.242;2023-03-01T01:12:53;3.00;99.90
19164;DHT22;9714;51.208;4.242;2023-03-01T01:15:21;2.90;99.90
19164;DHT22;9714;51.208;4.242;2023-03-01T01:17:51;2.90;99.90
19164;DHT22;9714;51.208;4.242;2023-03-01T01:20:18;2.90;99.90
19164;DHT22;9714;51.208;4.242;2023-03-01T01:22:49;3.00;99.90
19164;DHT22;9714;51.208;4.242;2023-03-01T01:25:25;2.90;99.90
19164;DHT22;9714;51.208;4.242;2023-03-01T01:27:52;3.00;99.90
19164;DHT22;9714;51.208;4.242;2023-03-01T01:30:20;3.00;99.90
19164;DHT22;9714;51.208;4.242;2023-03-01T01:32:49;2.90;99.90
19164;DHT22;9714;51.208;4.242;2023-03-01T01:35:16;2.80;99.90
19164;DHT22;9714;51.208;4.242;2023-03-01T01:37:44;2.80;99.90
19164;DHT22;9714;51.208;4.242;2023-03-01T01:40:13;2.60;99.90
19164;DHT22;9714;51.208;4.242;2023-03-01T01:42:41;2.80;99.90
19164;DHT22;9714;51.208;4.242;2023-03-01T01:45:30;2.80;99.90
19164;DHT22;9714;51.208;4.242;2023-03-01T01:48:03;2.70;99.90
19164;DHT22;9714;51.208;4.242;2023-03-01T01:50:32;2.80;99.90
19164;DHT22;9714;51.208;4.242;2023-03-01T01:53:09;2.70;99.90
19164;DHT22;9714;51.208;4.242;2023-03-01T01:55:47;2.70;99.90
19164;DHT22;9714;51.208;4.242;2023-03-01T01:58:19;2.80;99.90
19164;DHT22;9714;51.208;4.242;2023-03-01T02:00:50;2.90;99.90
19164;DHT22;9714;51.208;4.242;2023-03-01T02:03:31;2.80;99.90
19164;DHT22;9714;51.208;4.242;2023-03-01T02:06:12;2.90;99.90
19164;DHT22;9714;51.208;4.242;2023-03-01T02:08:44;2.90;99.90
19164;DHT22;9714;51.208;4.242;2023-03-01T02:11:15;2.90;99.90
19164;DHT22;9714;51.208;4.242;2023-03-01T02:13:51;3.20;99.90
19164;DHT22;9714;51.208;4.242;2023-03-01T02:16:26;3.00;99.90
19164;DHT22;9714;51.208;4.242;2023-03-01T02:18:57;2.80;99.90
19164;DHT22;9714;51.208;4.242;2023-03-01T02:21:40;2.50;99.90
19164;DHT22;9714;51.208;4.242;2023-03-01T02:24:22;2.40;99.90
19164;DHT22;9714;51.208;4.242;2023-03-01T02:26:55;2.40;99.90
19164;DHT22;9714;51.208;4.242;2023-03-01T02:29:35;2.50;99.90
19164;DHT22;9714;51.208;4.242;2023-03-01T02:32:07;2.80;99.90
19164;DHT22;9714;51.208;4.242;2023-03-01T02:34:39;2.60;99.90
19164;DHT22;9714;51.208;4.242;2023-03-01T02:37:10;2.40;99.90
19164;DHT22;9714;51.208;4.242;2023-03-01T02:42:51;2.10;99.90
19164;DHT22;9714;51.208;4.242;2023-03-01T02:45:24;2.10;99.90
19164;DHT22;9714;51.208;4.242;2023-03-01T02:47:54;2.10;99.90
19164;DHT22;9714;51.208;4.242;2023-03-01T02:50:45;2.10;99.90
19164;DHT22;9714;51.208;4.242;2023-03-01T02:53:16;2.20;99.90
19164;DHT22;9714;51.208;4.242;2023-03-01T02:55:47;2.10;99.90
19164;DHT22;9714;51.208;4.242;2023-03-01T02:58:15;2.10;99.90
19164;DHT22;9714;51.208;4.242;2023-03-01T03:00:47;2.10;99.90
19164;DHT22;9714;51.208;4.242;2023-03-01T03:03:22;2.10;99.90
19164;DHT22;9714;51.208;4.242;2023-03-01T03:05:49;2.10;99.90
19164;DHT22;9714;51.208;4.242;2023-03-01T03:08:35;2.10;99.90
19164;DHT22;9714;51.208;4.242;2023-03-01T03:11:03;2.10;99.90
19164;DHT22;9714;51.208;4.242;2023-03-01T03:14:02;2.10;99.90
19164;DHT22;9714;51.208;4.242;2023-03-01T03:16:31;2.10;99.90
19164;DHT22;9714;51.208;4.242;2023-03-01T03:18:59;2.10;99.90
19164;DHT22;9714;51.208;4.242;2023-03-01T03:21:42;2.10;99.90
19164;DHT22;9714;51.208;4.242;2023-03-01T03:31:18;2.00;99.90
19164;DHT22;9714;51.208;4.242;2023-03-01T03:33:50;2.00;99.90
19164;DHT22;9714;51.208;4.242;2023-03-01T03:36:22;2.00;99.90
19164;DHT22;9714;51.208;4.242;2023-03-01T03:38:51;1.90;99.90
19164;DHT22;9714;51.208;4.242;2023-03-01T03:41:21;2.00;99.90
19164;DHT22;9714;51.208;4.242;2023-03-01T03:43:48;2.10;99.90
19164;DHT22;9714;51.208;4.242;2023-03-01T03:46:16;2.10;99.90
19164;DHT22;9714;51.208;4.242;2023-03-01T03:48:45;2.10;99.90
19164;DHT22;9714;51.208;4.242;2023-03-01T03:51:40;2.10;99.90
19164;DHT22;9714;51.208;4.242;2023-03-01T03:54:08;2.10;99.90
19164;DHT22;9714;51.208;4.242;2023-03-01T03:56:38;2.10;99.90
19164;DHT22;9714;51.208;4.242;2023-03-01T03:59:09;2.10;99.90
19164;DHT22;9714;51.208;4.242;2023-03-01T04:01:37;1.90;99.90
19164;DHT22;9714;51.208;4.242;2023-03-01T04:04:06;2.00;99.90
19164;DHT22;9714;51.208;4.242;2023-03-01T04:06:54;2.00;99.90
19164;DHT22;9714;51.208;4.242;2023-03-01T04:09:24;1.90;99.90
19164;DHT22;9714;51.208;4.242;2023-03-01T04:11:51;2.00;99.90
19164;DHT22;9714;51.208;4.242;2023-03-01T04:14:21;2.10;99.90
19164;DHT22;9714;51.208;4.242;2023-03-01T04:16:48;2.10;99.90
19164;DHT22;9714;51.208;4.242;2023-03-01T04:19:15;2.00;99.90
19164;DHT22;9714;51.208;4.242;2023-03-01T04:21:42;2.00;99.90
19164;DHT22;9714;51.208;4.242;2023-03-01T04:24:12;2.00;99.90
19164;DHT22;9714;51.208;4.242;2023-03-01T04:26:39;2.00;99.90
19164;DHT22;9714;51.208;4.242;2023-03-01T04:29:07;1.90;99.90
19164;DHT22;9714;51.208;4.242;2023-03-01T04:31:36;2.00;99.90
19164;DHT22;9714;51.208;4.242;2023-03-01T04:34:05;1.90;99.90
19164;DHT22;9714;51.208;4.242;2023-03-01T04:36:32;1.90;99.90
19164;DHT22;9714;51.208;4.242;2023-03-01T04:39:01;1.80;99.90
19164;DHT22;9714;51.208;4.242;2023-03-01T04:41:42;1.80;99.90
19164;DHT22;9714;51.208;4.242;2023-03-01T04:44:09;1.90;99.90
19164;DHT22;9714;51.208;4.242;2023-03-01T04:46:37;1.80;99.90
19164;DHT22;9714;51.208;4.242;2023-03-01T04:49:06;1.80;99.90
19164;DHT22;9714;51.208;4.242;2023-03-01T04:51:34;1.70;99.90
19164;DHT22;9714;51.208;4.242;2023-03-01T04:54:02;2.10;99.90
19164;DHT22;9714;51.208;4.242;2023-03-01T04:56:39;1.90;99.90
19164;DHT22;9714;51.208;4.242;2023-03-01T04:59:19;1.60;99.90
19164;DHT22;9714;51.208;4.242;2023-03-01T05:05:10;1.50;99.90
19164;DHT22;9714;51.208;4.242;2023-03-01T05:17:08;1.30;99.90
19164;DHT22;9714;51.208;4.242;2023-03-01T05:19:35;1.30;99.90
19164;DHT22;9714;51.208;4.242;2023-03-01T05:25:26;1.30;99.90
19164;DHT22;9714;51.208;4.242;2023-03-01T05:27:59;1.30;99.90
19164;DHT22;9714;51.208;4.242;2023-03-01T05:31:01;1.40;99.90
19164;DHT22;9714;51.208;4.242;2023-03-01T05:33:37;1.20;99.90
19164;DHT22;9714;51.208;4.242;2023-03-01T05:36:06;1.20;99.90
19164;DHT22;9714;51.208;4.242;2023-03-01T05:38:33;1.20;99.90
19164;DHT22;9714;51.208;4.242;2023-03-01T05:41:01;1.20;99.90
19164;DHT22;9714;51.208;4.242;2023-03-01T05:43:30;1.10;99.90
19164;DHT22;9714;51.208;4.242;2023-03-01T05:45:59;1.10;99.90
19164;DHT22;9714;51.208;4.242;2023-03-01T05:48:27;1.00;99.90
19164;DHT22;9714;51.208;4.242;2023-03-01T05:50:59;1.00;99.90
19164;DHT22;9714;51.208;4.242;2023-03-01T05:53:27;1.10;99.90
19164;DHT22;9714;51.208;4.242;2023-03-01T05:55:54;1.00;99.90
19164;DHT22;9714;51.208;4.242;2023-03-01T05:58:21;1.00;99.90
19164;DHT22;9714;51.208;4.242;2023-03-01T06:00:50;0.90;99.90
19164;DHT22;9714;51.208;4.242;2023-03-01T06:03:19;0.80;99.90
19164;DHT22;9714;51.208;4.242;2023-03-01T06:05:48;0.90;99.90
19164;DHT22;9714;51.208;4.242;2023-03-01T06:08:19;0.80;99.90
19164;DHT22;9714;51.208;4.242;2023-03-01T06:10:49;0.80;99.90
19164;DHT22;9714;51.208;4.242;2023-03-01T06:13:19;0.90;99.90
19164;DHT22;9714;51.208;4.242;2023-03-01T06:15:53;1.00;99.90
19164;DHT22;9714;51.208;4.242;2023-03-01T06:18:21;1.00;99.90
19164;DHT22;9714;51.208;4.242;2023-03-01T06:20:52;1.00;99.90
19164;DHT22;9714;51.208;4.242;2023-03-01T06:23:21;1.00;99.90
19164;DHT22;9714;51.208;4.242;2023-03-01T06:25:49;0.90;99.90
19164;DHT22;9714;51.208;4.242;2023-03-01T06:28:22;0.90;99.90
19164;DHT22;9714;51.208;4.242;2023-03-01T06:30:55;0.90;99.90
19164;DHT22;9714;51.208;4.242;2023-03-01T06:33:28;0.90;99.90
19164;DHT22;9714;51.208;4.242;2023-03-01T06:35:55;0.80;99.90
19164;DHT22;9714;51.208;4.242;2023-03-01T06:38:24;0.90;99.90
19164;DHT22;9714;51.208;4.242;2023-03-01T06:40:52;0.90;99.90
19164;DHT22;9714;51.208;4.242;2023-03-01T06:43:19;0.90;99.90
19164;DHT22;9714;51.208;4.242;2023-03-01T06:45:49;0.90;99.90
19164;DHT22;9714;51.208;4.242;2023-03-01T06:48:17;1.00;99.90
19164;DHT22;9714;51.208;4.242;2023-03-01T06:50:44;1.00;99.90
19164;DHT22;9714;51.208;4.242;2023-03-01T06:53:11;1.00;99.90
19164;DHT22;9714;51.208;4.242;2023-03-01T06:55:43;1.10;99.90
19164;DHT22;9714;51.208;4.242;2023-03-01T06:58:13;1.10;99.90
19164;DHT22;9714;51.208;4.242;2023-03-01T07:00:44;1.40;99.90
19164;DHT22;9714;51.208;4.242;2023-03-01T07:03:11;1.70;99.90
19164;DHT22;9714;51.208;4.242;2023-03-01T07:05:43;2.10;99.90
19164;DHT22;9714;51.208;4.242;2023-03-01T07:08:10;2.40;99.90
19164;DHT22;9714;51.208;4.242;2023-03-01T07:10:56;2.80;99.90
19164;DHT22;9714;51.208;4.242;2023-03-01T07:13:29;3.40;99.90
19164;DHT22;9714;51.208;4.242;2023-03-01T07:16:05;3.60;99.90
19164;DHT22;9714;51.208;4.242;2023-03-01T07:18:35;3.70;99.90
19164;DHT22;9714;51.208;4.242;2023-03-01T07:21:18;3.80;99.90
19164;DHT22;9714;51.208;4.242;2023-03-01T07:27:19;4.80;99.90
19164;DHT22;9714;51.208;4.242;2023-03-01T07:30:18;4.90;99.90
19164;DHT22;9714;51.208;4.242;2023-03-01T07:33:12;5.30;99.90
19164;DHT22;9714;51.208;4.242;2023-03-01T07:35:58;5.60;99.90
19164;DHT22;9714;51.208;4.242;2023-03-01T07:38:32;5.40;99.90
19164;DHT22;9714;51.208;4.242;2023-03-01T07:41:06;5.50;99.90
19164;DHT22;9714;51.208;4.242;2023-03-01T07:46:59;5.90;99.90
19164;DHT22;9714;51.208;4.242;2023-03-01T07:52:49;6.60;99.90
19164;DHT22;9714;51.208;4.242;2023-03-01T07:55:32;6.80;99.90
19164;DHT22;9714;51.208;4.242;2023-03-01T07:58:13;7.20;99.90
19164;DHT22;9714;51.208;4.242;2023-03-01T08:00:41;7.20;99.90
19164;DHT22;9714;51.208;4.242;2023-03-01T08:03:11;7.40;99.90
19164;DHT22;9714;51.208;4.242;2023-03-01T08:05:50;7.60;99.90
19164;DHT22;9714;51.208;4.242;2023-03-01T08:08:29;7.50;99.90
19164;DHT22;9714;51.208;4.242;2023-03-01T08:11:06;8.00;99.90
19164;DHT22;9714;51.208;4.242;2023-03-01T08:13:58;8.10;99.90
19164;DHT22;9714;51.208;4.242;2023-03-01T08:19:51;8.30;98.90
19164;DHT22;9714;51.208;4.242;2023-03-01T08:22:37;8.30;99.00
19164;DHT22;9714;51.208;4.242;2023-03-01T08:25:10;8.60;97.30
19164;DHT22;9714;51.208;4.242;2023-03-01T08:30:52;8.90;96.60
19164;DHT22;9714;51.208;4.242;2023-03-01T08:37:09;8.80;95.40
19164;DHT22;9714;51.208;4.242;2023-03-01T08:39:52;9.50;94.10
19164;DHT22;9714;51.208;4.242;2023-03-01T08:49:05;9.20;93.20
19164;DHT22;9714;51.208;4.242;2023-03-01T08:54:56;10.40;90.70
19164;DHT22;9714;51.208;4.242;2023-03-01T08:57:26;10.60;90.10
19164;DHT22;9714;51.208;4.242;2023-03-01T08:59:53;10.90;88.20
19164;DHT22;9714;51.208;4.242;2023-03-01T09:02:35;11.00;86.00
19164;DHT22;9714;51.208;4.242;2023-03-01T09:05:03;11.10;84.60
19164;DHT22;9714;51.208;4.242;2023-03-01T09:07:36;10.00;84.30
19164;DHT22;9714;51.208;4.242;2023-03-01T09:10:11;9.60;87.30
19164;DHT22;9714;51.208;4.242;2023-03-01T09:12:44;10.40;87.40
19164;DHT22;9714;51.208;4.242;2023-03-01T09:15:14;11.20;85.10
19164;DHT22;9714;51.208;4.242;2023-03-01T09:18:10;11.00;82.90
19164;DHT22;9714;51.208;4.242;2023-03-01T09:21:05;10.60;82.70
19164;DHT22;9714;51.208;4.242;2023-03-01T09:23:34;10.90;83.30
19164;DHT22;9714;51.208;4.242;2023-03-01T09:26:06;12.10;81.20
19164;DHT22;9714;51.208;4.242;2023-03-01T09:28:34;11.80;79.10
19164;DHT22;9714;51.208;4.242;2023-03-01T09:31:02;12.00;76.80
19164;DHT22;9714;51.208;4.242;2023-03-01T09:33:31;12.00;76.00
19164;DHT22;9714;51.208;4.242;2023-03-01T09:36:06;12.10;76.20
19164;DHT22;9714;51.208;4.242;2023-03-01T09:38:35;12.60;76.20
19164;DHT22;9714;51.208;4.242;2023-03-01T09:41:18;13.00;73.00
19164;DHT22;9714;51.208;4.242;2023-03-01T09:43:53;13.30;72.90
19164;DHT22;9714;51.208;4.242;2023-03-01T09:46:25;13.60;69.30
19164;DHT22;9714;51.208;4.242;2023-03-01T09:48:57;12.50;69.50
19164;DHT22;9714;51.208;4.242;2023-03-01T09:51:32;13.10;70.40
19164;DHT22;9714;51.208;4.242;2023-03-01T09:54:01;13.70;67.70
19164;DHT22;9714;51.208;4.242;2023-03-01T09:56:34;14.60;66.70
19164;DHT22;9714;51.208;4.242;2023-03-01T09:59:14;14.60;63.60
19164;DHT22;9714;51.208;4.242;2023-03-01T10:01:48;14.60;63.00
19164;DHT22;9714;51.208;4.242;2023-03-01T10:04:29;14.10;62.10
19164;DHT22;9714;51.208;4.242;2023-03-01T10:07:14;13.80;63.00
19164;DHT22;9714;51.208;4.242;2023-03-01T10:09:44;13.80;63.10
19164;DHT22;9714;51.208;4.242;2023-03-01T10:12:16;13.90;62.40
19164;DHT22;9714;51.208;4.242;2023-03-01T10:14:54;14.50;61.30
19164;DHT22;9714;51.208;4.242;2023-03-01T10:17:27;14.00;61.60
19164;DHT22;9714;51.208;4.242;2023-03-01T10:20:16;13.50;61.70
19164;DHT22;9714;51.208;4.242;2023-03-01T10:22:44;13.80;62.40
19164;DHT22;9714;51.208;4.242;2023-03-01T10:25:28;14.30;61.60
19164;DHT22;9714;51.208;4.242;2023-03-01T10:28:05;14.70;60.20
19164;DHT22;9714;51.208;4.242;2023-03-01T10:30:37;14.50;59.20
19164;DHT22;9714;51.208;4.242;2023-03-01T10:33:21;15.00;59.00
19164;DHT22;9714;51.208;4.242;2023-03-01T10:35:56;15.10;58.10
19164;DHT22;9714;51.208;4.242;2023-03-01T10:38:24;15.50;57.40
19164;DHT22;9714;51.208;4.242;2023-03-01T10:40:53;15.30;58.00
19164;DHT22;9714;51.208;4.242;2023-03-01T10:43:31;15.50;57.90
19164;DHT22;9714;51.208;4.242;2023-03-01T10:45:59;15.80;56.70
19164;DHT22;9714;51.208;4.242;2023-03-01T10:48:28;15.90;56.50
19164;DHT22;9714;51.208;4.242;2023-03-01T10:51:08;16.10;55.90
19164;DHT22;9714;51.208;4.242;2023-03-01T10:53:37;15.70;56.70
19164;DHT22;9714;51.208;4.242;2023-03-01T10:56:07;16.00;55.60
19164;DHT22;9714;51.208;4.242;2023-03-01T10:58:40;15.90;56.50
19164;DHT22;9714;51.208;4.242;2023-03-01T11:01:25;16.50;55.20
19164;DHT22;9714;51.208;4.242;2023-03-01T11:04:10;16.50;55.10
19164;DHT22;9714;51.208;4.242;2023-03-01T11:06:39;17.50;52.80
19164;DHT22;9714;51.208;4.242;2023-03-01T11:09:14;17.40;52.40
19164;DHT22;9714;51.208;4.242;2023-03-01T11:11:43;17.40;52.70
19164;DHT22;9714;51.208;4.242;2023-03-01T11:14:17;16.30;53.30
19164;DHT22;9714;51.208;4.242;2023-03-01T11:16:48;16.80;54.20
19164;DHT22;9714;51.208;4.242;2023-03-01T11:19:20;16.70;53.00
19164;DHT22;9714;51.208;4.242;2023-03-01T11:21:56;17.30;53.50
19164;DHT22;9714;51.208;4.242;2023-03-01T11:24:31;17.00;52.30
19164;DHT22;9714;51.208;4.242;2023-03-01T11:27:03;17.30;53.10
19164;DHT22;9714;51.208;4.242;2023-03-01T11:29:36;16.30;53.30
19164;DHT22;9714;51.208;4.242;2023-03-01T11:32:11;16.40;54.00
19164;DHT22;9714;51.208;4.242;2023-03-01T11:34:45;16.30;52.40
19164;DHT22;9714;51.208;4.242;2023-03-01T11:37:28;16.70;53.40
19164;DHT22;9714;51.208;4.242;2023-03-01T11:40:23;16.90;51.90
19164;DHT22;9714;51.208;4.242;2023-03-01T11:43:09;17.50;51.20
19164;DHT22;9714;51.208;4.242;2023-03-01T11:46:01;17.10;51.20
19164;DHT22;9714;51.208;4.242;2023-03-01T11:48:55;17.70;51.00
19164;DHT22;9714;51.208;4.242;2023-03-01T11:51:37;19.20;50.00
19164;DHT22;9714;51.208;4.242;2023-03-01T11:54:18;19.00;48.80
19164;DHT22;9714;51.208;4.242;2023-03-01T11:56:53;18.70;49.20
19164;DHT22;9714;51.208;4.242;2023-03-01T11:59:55;19.70;49.20
19164;DHT22;9714;51.208;4.242;2023-03-01T12:06:05;21.50;46.20
19164;DHT22;9714;51.208;4.242;2023-03-01T12:08:54;20.20;45.20
19164;DHT22;9714;51.208;4.242;2023-03-01T12:11:33;18.70;47.10
19164;DHT22;9714;51.208;4.242;2023-03-01T12:18:05;17.60;48.10
19164;DHT22;9714;51.208;4.242;2023-03-01T12:20:46;19.00;47.40
19164;DHT22;9714;51.208;4.242;2023-03-01T12:23:49;19.30;46.70
19164;DHT22;9714;51.208;4.242;2023-03-01T12:26:28;19.40;47.00
19164;DHT22;9714;51.208;4.242;2023-03-01T12:29:35;19.80;47.40
19164;DHT22;9714;51.208;4.242;2023-03-01T12:32:28;20.20;46.20
19164;DHT22;9714;51.208;4.242;2023-03-01T12:35:33;20.30;45.70
19164;DHT22;9714;51.208;4.242;2023-03-01T12:38:21;20.90;45.60
19164;DHT22;9714;51.208;4.242;2023-03-01T12:41:06;21.40;44.30
19164;DHT22;9714;51.208;4.242;2023-03-01T12:43:58;22.00;43.60
19164;DHT22;9714;51.208;4.242;2023-03-01T12:46:36;22.80;42.90
19164;DHT22;9714;51.208;4.242;2023-03-01T12:49:12;23.30;42.20
19164;DHT22;9714;51.208;4.242;2023-03-01T12:51:54;22.40;42.50
19164;DHT22;9714;51.208;4.242;2023-03-01T12:54:33;21.20;42.40
19164;DHT22;9714;51.208;4.242;2023-03-01T12:57:09;21.60;42.70
19164;DHT22;9714;51.208;4.242;2023-03-01T12:59:55;22.00;42.40
19164;DHT22;9714;51.208;4.242;2023-03-01T13:02:35;22.20;42.50
19164;DHT22;9714;51.208;4.242;2023-03-01T13:05:26;21.20;42.60
19164;DHT22;9714;51.208;4.242;2023-03-01T13:08:03;20.00;43.30
19164;DHT22;9714;51.208;4.242;2023-03-01T13:10:36;20.80;43.80
19164;DHT22;9714;51.208;4.242;2023-03-01T13:13:43;20.60;44.10
19164;DHT22;9714;51.208;4.242;2023-03-01T13:19:38;21.90;42.70
19164;DHT22;9714;51.208;4.242;2023-03-01T13:22:26;21.80;41.20
19164;DHT22;9714;51.208;4.242;2023-03-01T13:25:01;21.90;41.80
19164;DHT22;9714;51.208;4.242;2023-03-01T13:27:29;21.50;42.40
19164;DHT22;9714;51.208;4.242;2023-03-01T13:30:01;21.70;42.20
19164;DHT22;9714;51.208;4.242;2023-03-01T13:32:35;20.50;42.20
19164;DHT22;9714;51.208;4.242;2023-03-01T13:35:40;19.60;44.30
19164;DHT22;9714;51.208;4.242;2023-03-01T13:38:44;20.30;43.00
19164;DHT22;9714;51.208;4.242;2023-03-01T13:41:12;20.70;43.20
19164;DHT22;9714;51.208;4.242;2023-03-01T13:43:42;20.00;43.40
19164;DHT22;9714;51.208;4.242;2023-03-01T13:46:15;20.00;43.10
19164;DHT22;9714;51.208;4.242;2023-03-01T13:48:45;20.30;43.10
19164;DHT22;9714;51.208;4.242;2023-03-01T13:51:14;20.40;42.90
19164;DHT22;9714;51.208;4.242;2023-03-01T13:53:45;20.00;42.80
19164;DHT22;9714;51.208;4.242;2023-03-01T13:56:17;20.40;43.40
19164;DHT22;9714;51.208;4.242;2023-03-01T13:58:51;21.20;42.20
19164;DHT22;9714;51.208;4.242;2023-03-01T14:01:25;20.00;42.40
19164;DHT22;9714;51.208;4.242;2023-03-01T14:03:53;20.10;43.20
19164;DHT22;9714;51.208;4.242;2023-03-01T14:06:22;20.60;42.20
19164;DHT22;9714;51.208;4.242;2023-03-01T14:09:02;19.20;43.60
19164;DHT22;9714;51.208;4.242;2023-03-01T14:12:12;19.40;44.30
19164;DHT22;9714;51.208;4.242;2023-03-01T14:14:50;19.60;43.60
19164;DHT22;9714;51.208;4.242;2023-03-01T14:17:39;19.60;43.50
19164;DHT22;9714;51.208;4.242;2023-03-01T14:20:20;19.30;44.10
19164;DHT22;9714;51.208;4.242;2023-03-01T14:22:51;19.80;44.20
19164;DHT22;9714;51.208;4.242;2023-03-01T14:25:24;19.10;44.10
19164;DHT22;9714;51.208;4.242;2023-03-01T14:27:55;19.20;44.10
19164;DHT22;9714;51.208;4.242;2023-03-01T14:30:25;19.30;44.50
19164;DHT22;9714;51.208;4.242;2023-03-01T14:32:54;19.70;43.90
19164;DHT22;9714;51.208;4.242;2023-03-01T14:35:25;19.20;43.60
19164;DHT22;9714;51.208;4.242;2023-03-01T14:37:52;20.10;43.70
19164;DHT22;9714;51.208;4.242;2023-03-01T14:40:23;19.20;43.80
19164;DHT22;9714;51.208;4.242;2023-03-01T14:42:54;18.10;44.40
19164;DHT22;9714;51.208;4.242;2023-03-01T14:45:25;18.10;44.80
19164;DHT22;9714;51.208;4.242;2023-03-01T14:47:53;17.60;45.30
19164;DHT22;9714;51.208;4.242;2023-03-01T14:50:35;17.50;45.80
19164;DHT22;9714;51.208;4.242;2023-03-01T14:53:11;18.00;45.80
19164;DHT22;9714;51.208;4.242;2023-03-01T14:55:46;18.10;45.40
19164;DHT22;9714;51.208;4.242;2023-03-01T14:58:17;17.80;45.90
19164;DHT22;9714;51.208;4.242;2023-03-01T15:00:49;17.80;45.90
19164;DHT22;9714;51.208;4.242;2023-03-01T15:03:23;18.50;45.70
19164;DHT22;9714;51.208;4.242;2023-03-01T15:05:51;18.50;45.30
19164;DHT22;9714;51.208;4.242;2023-03-01T15:08:21;18.40;45.20
19164;DHT22;9714;51.208;4.242;2023-03-01T15:10:58;18.10;45.00
19164;DHT22;9714;51.208;4.242;2023-03-01T15:13:29;17.90;45.80
19164;DHT22;9714;51.208;4.242;2023-03-01T15:16:06;17.90;44.60
19164;DHT22;9714;51.208;4.242;2023-03-01T15:18:34;17.50;45.70
19164;DHT22;9714;51.208;4.242;2023-03-01T15:21:15;17.50;46.10
19164;DHT22;9714;51.208;4.242;2023-03-01T15:23:48;17.50;46.90
19164;DHT22;9714;51.208;4.242;2023-03-01T15:26:29;16.70;46.90
19164;DHT22;9714;51.208;4.242;2023-03-01T15:28:58;16.20;47.40
19164;DHT22;9714;51.208;4.242;2023-03-01T15:31:28;16.40;47.30
19164;DHT22;9714;51.208;4.242;2023-03-01T15:34:22;16.70;47.80
19164;DHT22;9714;51.208;4.242;2023-03-01T15:36:50;15.90;48.30
19164;DHT22;9714;51.208;4.242;2023-03-01T15:39:41;15.60;48.10
19164;DHT22;9714;51.208;4.242;2023-03-01T15:42:13;15.60;49.50
19164;DHT22;9714;51.208;4.242;2023-03-01T15:45:10;15.20;49.10
19164;DHT22;9714;51.208;4.242;2023-03-01T15:47:41;15.00;49.70
19164;DHT22;9714;51.208;4.242;2023-03-01T15:50:17;15.10;50.10
19164;DHT22;9714;51.208;4.242;2023-03-01T15:52:45;15.50;49.20
19164;DHT22;9714;51.208;4.242;2023-03-01T15:55:16;15.20;49.30
19164;DHT22;9714;51.208;4.242;2023-03-01T15:57:47;15.10;49.70
19164;DHT22;9714;51.208;4.242;2023-03-01T16:00:19;14.60;50.50
19164;DHT22;9714;51.208;4.242;2023-03-01T16:02:47;14.70;50.70
19164;DHT22;9714;51.208;4.242;2023-03-01T16:05:19;15.20;50.00
19164;DHT22;9714;51.208;4.242;2023-03-01T16:07:47;14.50;50.50
19164;DHT22;9714;51.208;4.242;2023-03-01T16:10:14;14.10;51.00
19164;DHT22;9714;51.208;4.242;2023-03-01T16:12:41;14.10;51.50
19164;DHT22;9714;51.208;4.242;2023-03-01T16:15:14;14.10;51.50
19164;DHT22;9714;51.208;4.242;2023-03-01T16:17:44;14.20;52.00
19164;DHT22;9714;51.208;4.242;2023-03-01T16:20:11;13.60;52.20
19164;DHT22;9714;51.208;4.242;2023-03-01T16:22:41;12.70;52.70
19164;DHT22;9714;51.208;4.242;2023-03-01T16:25:10;12.10;54.00
19164;DHT22;9714;51.208;4.242;2023-03-01T16:27:38;11.30;55.40
19164;DHT22;9714;51.208;4.242;2023-03-01T16:30:06;11.00;56.30
19164;DHT22;9714;51.208;4.242;2023-03-01T16:32:37;11.20;56.60
19164;DHT22;9714;51.208;4.242;2023-03-01T16:35:07;11.00;56.80
19164;DHT22;9714;51.208;4.242;2023-03-01T16:37:35;10.80;57.30
19164;DHT22;9714;51.208;4.242;2023-03-01T16:40:04;10.70;57.30
19164;DHT22;9714;51.208;4.242;2023-03-01T16:42:33;10.20;57.80
19164;DHT22;9714;51.208;4.242;2023-03-01T16:45:01;9.90;58.40
19164;DHT22;9714;51.208;4.242;2023-03-01T16:47:29;9.90;58.80
19164;DHT22;9714;51.208;4.242;2023-03-01T16:49:56;9.80;59.50
19164;DHT22;9714;51.208;4.242;2023-03-01T16:52:25;10.00;59.60
19164;DHT22;9714;51.208;4.242;2023-03-01T16:54:52;9.80;59.50
19164;DHT22;9714;51.208;4.242;2023-03-01T16:57:19;9.70;59.70
19164;DHT22;9714;51.208;4.242;2023-03-01T16:59:46;9.60;60.20
19164;DHT22;9714;51.208;4.242;2023-03-01T17:02:13;9.70;59.80
19164;DHT22;9714;51.208;4.242;2023-03-01T17:04:44;9.50;59.60
19164;DHT22;9714;51.208;4.242;2023-03-01T17:07:11;9.50;59.70
19164;DHT22;9714;51.208;4.242;2023-03-01T17:09:40;9.40;60.40
19164;DHT22;9714;51.208;4.242;2023-03-01T17:12:08;9.50;60.00
19164;DHT22;9714;51.208;4.242;2023-03-01T17:14:35;9.50;59.70
19164;DHT22;9714;51.208;4.242;2023-03-01T17:17:04;9.30;59.80
19164;DHT22;9714;51.208;4.242;2023-03-01T17:19:31;8.90;60.60
19164;DHT22;9714;51.208;4.242;2023-03-01T17:21:59;9.00;60.90
19164;DHT22;9714;51.208;4.242;2023-03-01T17:24:27;9.10;60.80
19164;DHT22;9714;51.208;4.242;2023-03-01T17:27:03;9.00;61.20
19164;DHT22;9714;51.208;4.242;2023-03-01T17:29:33;9.00;61.20
19164;DHT22;9714;51.208;4.242;2023-03-01T17:32:01;8.90;61.40
19164;DHT22;9714;51.208;4.242;2023-03-01T17:34:32;8.70;61.90
19164;DHT22;9714;51.208;4.242;2023-03-01T17:37:03;8.50;62.60
19164;DHT22;9714;51.208;4.242;2023-03-01T17:39:30;8.50;63.00
19164;DHT22;9714;51.208;4.242;2023-03-01T17:42:03;8.50;63.20
19164;DHT22;9714;51.208;4.242;2023-03-01T17:44:32;8.40;63.40
19164;DHT22;9714;51.208;4.242;2023-03-01T17:47:00;8.50;63.20
19164;DHT22;9714;51.208;4.242;2023-03-01T17:49:28;8.60;63.40